Terminal Aerodrome Forecast
Issued by NWS

Home | Current Version | Previous Version | Graphics & Text | Print | Product List | Glossary On
Versions: 1 2 3 4 5 6 7 8 9 10 11 12 13 14 15 16
000
FTUS43 KMPX 050520
TAFRNH
TAF
KRNH 050520Z 0506/0606 22006KT 6SM BR SCT010 OVC025
     FM050700 VRB03KT 1/2SM FZFG VV002
     FM051400 14009KT P6SM OVC090
     FM052100 16012G18KT P6SM OVC035
     FM060200 19012G18KT 4SM -RA OVC025=

USA.gov is the U.S. government's official web portal to all federal, state and local government web resources and services.